sensor_id;sensor_type;location;lat;lon;timestamp;P1;durP1;ratioP1;P2;durP2;ratioP2
78783;SDS011;68127;51.050;14.084;2023-06-14T00:01:08;5.10;;;2.60;;
78783;SDS011;68127;51.050;14.084;2023-06-14T00:03:34;5.57;;;2.80;;
78783;SDS011;68127;51.050;14.084;2023-06-14T00:05:59;9.50;;;3.13;;
78783;SDS011;68127;51.050;14.084;2023-06-14T00:08:25;6.20;;;3.20;;
78783;SDS011;68127;51.050;14.084;2023-06-14T00:10:50;5.75;;;3.10;;
78783;SDS011;68127;51.050;14.084;2023-06-14T00:13:16;4.60;;;2.67;;
78783;SDS011;68127;51.050;14.084;2023-06-14T00:15:41;6.28;;;3.30;;
78783;SDS011;68127;51.050;14.084;2023-06-14T00:18:07;6.68;;;2.95;;
78783;SDS011;68127;51.050;14.084;2023-06-14T00:20:32;5.13;;;3.00;;
78783;SDS011;68127;51.050;14.084;2023-06-14T00:23:01;5.35;;;3.08;;
78783;SDS011;68127;51.050;14.084;2023-06-14T00:25:26;5.32;;;2.95;;
78783;SDS011;68127;51.050;14.084;2023-06-14T00:27:52;8.10;;;3.80;;
78783;SDS011;68127;51.050;14.084;2023-06-14T00:30:18;6.03;;;3.58;;
78783;SDS011;68127;51.050;14.084;2023-06-14T00:32:44;5.30;;;3.50;;
78783;SDS011;68127;51.050;14.084;2023-06-14T00:35:09;6.60;;;3.50;;
78783;SDS011;68127;51.050;14.084;2023-06-14T00:37:35;4.82;;;2.78;;
78783;SDS011;68127;51.050;14.084;2023-06-14T00:40:00;7.95;;;3.25;;
78783;SDS011;68127;51.050;14.084;2023-06-14T00:42:26;5.80;;;3.10;;
78783;SDS011;68127;51.050;14.084;2023-06-14T00:44:52;7.63;;;3.10;;
78783;SDS011;68127;51.050;14.084;2023-06-14T00:47:17;5.13;;;2.70;;
78783;SDS011;68127;51.050;14.084;2023-06-14T00:49:44;4.93;;;3.20;;
78783;SDS011;68127;51.050;14.084;2023-06-14T00:52:10;6.40;;;3.10;;
78783;SDS011;68127;51.050;14.084;2023-06-14T00:54:37;5.00;;;3.10;;
78783;SDS011;68127;51.050;14.084;2023-06-14T00:57:03;5.93;;;3.08;;
78783;SDS011;68127;51.050;14.084;2023-06-14T00:59:28;5.68;;;3.25;;
78783;SDS011;68127;51.050;14.084;2023-06-14T01:01:54;5.55;;;3.28;;
78783;SDS011;68127;51.050;14.084;2023-06-14T01:04:19;6.38;;;3.47;;
78783;SDS011;68127;51.050;14.084;2023-06-14T01:06:46;4.95;;;3.20;;
78783;SDS011;68127;51.050;14.084;2023-06-14T01:09:21;8.23;;;3.55;;
78783;SDS011;68127;51.050;14.084;2023-06-14T01:11:54;6.72;;;3.22;;
78783;SDS011;68127;51.050;14.084;2023-06-14T01:14:42;7.40;;;3.28;;
78783;SDS011;68127;51.050;14.084;2023-06-14T01:17:08;5.60;;;3.13;;
78783;SDS011;68127;51.050;14.084;2023-06-14T01:19:42;6.53;;;3.03;;
78783;SDS011;68127;51.050;14.084;2023-06-14T01:22:08;5.68;;;3.17;;
78783;SDS011;68127;51.050;14.084;2023-06-14T01:24:33;4.95;;;3.00;;
78783;SDS011;68127;51.050;14.084;2023-06-14T01:26:59;4.68;;;3.10;;
78783;SDS011;68127;51.050;14.084;2023-06-14T01:29:26;7.00;;;3.60;;
78783;SDS011;68127;51.050;14.084;2023-06-14T01:31:53;8.68;;;3.75;;
78783;SDS011;68127;51.050;14.084;2023-06-14T01:34:18;5.97;;;3.60;;
78783;SDS011;68127;51.050;14.084;2023-06-14T01:36:44;6.10;;;3.33;;
78783;SDS011;68127;51.050;14.084;2023-06-14T01:39:11;9.82;;;3.53;;
78783;SDS011;68127;51.050;14.084;2023-06-14T01:41:39;6.25;;;3.80;;
78783;SDS011;68127;51.050;14.084;2023-06-14T01:44:05;6.72;;;3.55;;
78783;SDS011;68127;51.050;14.084;2023-06-14T01:46:30;5.95;;;3.30;;
78783;SDS011;68127;51.050;14.084;2023-06-14T01:48:55;5.85;;;3.75;;
78783;SDS011;68127;51.050;14.084;2023-06-14T01:51:21;6.57;;;3.70;;
78783;SDS011;68127;51.050;14.084;2023-06-14T01:53:46;6.90;;;3.88;;
78783;SDS011;68127;51.050;14.084;2023-06-14T01:56:13;6.88;;;3.47;;
78783;SDS011;68127;51.050;14.084;2023-06-14T01:58:38;5.60;;;3.65;;
78783;SDS011;68127;51.050;14.084;2023-06-14T02:01:04;5.78;;;3.45;;
78783;SDS011;68127;51.050;14.084;2023-06-14T02:03:30;6.15;;;3.92;;
78783;SDS011;68127;51.050;14.084;2023-06-14T02:05:55;6.25;;;3.42;;
78783;SDS011;68127;51.050;14.084;2023-06-14T02:08:20;8.65;;;4.57;;
78783;SDS011;68127;51.050;14.084;2023-06-14T02:10:46;5.72;;;3.47;;
78783;SDS011;68127;51.050;14.084;2023-06-14T02:13:11;9.18;;;3.83;;
78783;SDS011;68127;51.050;14.084;2023-06-14T02:15:37;5.43;;;3.50;;
78783;SDS011;68127;51.050;14.084;2023-06-14T02:18:02;6.03;;;3.40;;
78783;SDS011;68127;51.050;14.084;2023-06-14T02:20:28;6.72;;;4.03;;
78783;SDS011;68127;51.050;14.084;2023-06-14T02:22:53;5.35;;;3.70;;
78783;SDS011;68127;51.050;14.084;2023-06-14T02:25:19;5.20;;;3.42;;
78783;SDS011;68127;51.050;14.084;2023-06-14T02:27:44;5.85;;;3.88;;
78783;SDS011;68127;51.050;14.084;2023-06-14T02:30:10;8.02;;;4.05;;
78783;SDS011;68127;51.050;14.084;2023-06-14T02:32:35;6.78;;;3.88;;
78783;SDS011;68127;51.050;14.084;2023-06-14T02:35:01;5.97;;;3.58;;
78783;SDS011;68127;51.050;14.084;2023-06-14T02:37:26;6.78;;;3.80;;
78783;SDS011;68127;51.050;14.084;2023-06-14T02:39:51;6.43;;;3.72;;
78783;SDS011;68127;51.050;14.084;2023-06-14T02:42:17;6.65;;;3.90;;
78783;SDS011;68127;51.050;14.084;2023-06-14T02:44:42;5.95;;;3.78;;
78783;SDS011;68127;51.050;14.084;2023-06-14T02:47:08;5.30;;;3.83;;
78783;SDS011;68127;51.050;14.084;2023-06-14T02:49:33;8.07;;;3.92;;
78783;SDS011;68127;51.050;14.084;2023-06-14T02:51:59;6.50;;;3.95;;
78783;SDS011;68127;51.050;14.084;2023-06-14T02:54:24;5.78;;;3.88;;
78783;SDS011;68127;51.050;14.084;2023-06-14T02:56:50;6.80;;;4.10;;
78783;SDS011;68127;51.050;14.084;2023-06-14T02:59:15;5.82;;;3.72;;
78783;SDS011;68127;51.050;14.084;2023-06-14T03:01:42;8.13;;;3.88;;
78783;SDS011;68127;51.050;14.084;2023-06-14T03:04:07;6.78;;;3.90;;
78783;SDS011;68127;51.050;14.084;2023-06-14T03:06:33;5.25;;;3.80;;
78783;SDS011;68127;51.050;14.084;2023-06-14T03:08:59;6.10;;;4.38;;
78783;SDS011;68127;51.050;14.084;2023-06-14T03:11:26;6.55;;;4.32;;
78783;SDS011;68127;51.050;14.084;2023-06-14T03:13:52;8.52;;;4.15;;
78783;SDS011;68127;51.050;14.084;2023-06-14T03:16:18;8.60;;;4.07;;
78783;SDS011;68127;51.050;14.084;2023-06-14T03:18:47;9.27;;;4.47;;
78783;SDS011;68127;51.050;14.084;2023-06-14T03:21:13;7.13;;;4.32;;
78783;SDS011;68127;51.050;14.084;2023-06-14T03:23:40;6.57;;;4.03;;
78783;SDS011;68127;51.050;14.084;2023-06-14T03:26:06;6.05;;;3.80;;
78783;SDS011;68127;51.050;14.084;2023-06-14T03:28:31;7.15;;;4.35;;
78783;SDS011;68127;51.050;14.084;2023-06-14T03:30:56;5.97;;;3.97;;
78783;SDS011;68127;51.050;14.084;2023-06-14T03:33:21;5.53;;;3.67;;
78783;SDS011;68127;51.050;14.084;2023-06-14T03:35:47;5.68;;;3.88;;
78783;SDS011;68127;51.050;14.084;2023-06-14T03:38:12;9.00;;;4.47;;
78783;SDS011;68127;51.050;14.084;2023-06-14T03:40:37;6.13;;;3.92;;
78783;SDS011;68127;51.050;14.084;2023-06-14T03:43:02;8.82;;;4.22;;
78783;SDS011;68127;51.050;14.084;2023-06-14T03:45:28;7.78;;;4.15;;
78783;SDS011;68127;51.050;14.084;2023-06-14T03:47:53;6.80;;;4.30;;
78783;SDS011;68127;51.050;14.084;2023-06-14T03:50:19;6.20;;;4.35;;
78783;SDS011;68127;51.050;14.084;2023-06-14T03:52:44;6.65;;;4.50;;
78783;SDS011;68127;51.050;14.084;2023-06-14T03:55:10;7.50;;;4.35;;
78783;SDS011;68127;51.050;14.084;2023-06-14T03:57:38;6.55;;;4.80;;
78783;SDS011;68127;51.050;14.084;2023-06-14T04:00:03;5.95;;;4.25;;
78783;SDS011;68127;51.050;14.084;2023-06-14T04:02:30;7.80;;;4.40;;
78783;SDS011;68127;51.050;14.084;2023-06-14T04:04:56;7.30;;;4.65;;
78783;SDS011;68127;51.050;14.084;2023-06-14T04:07:21;8.27;;;4.72;;
78783;SDS011;68127;51.050;14.084;2023-06-14T04:09:48;8.57;;;4.72;;
78783;SDS011;68127;51.050;14.084;2023-06-14T04:12:14;9.77;;;4.65;;
78783;SDS011;68127;51.050;14.084;2023-06-14T04:14:39;6.15;;;4.50;;
78783;SDS011;68127;51.050;14.084;2023-06-14T04:17:05;8.13;;;4.80;;
78783;SDS011;68127;51.050;14.084;2023-06-14T04:19:30;7.38;;;4.13;;
78783;SDS011;68127;51.050;14.084;2023-06-14T04:21:55;7.60;;;4.95;;
78783;SDS011;68127;51.050;14.084;2023-06-14T04:24:21;7.80;;;4.93;;
78783;SDS011;68127;51.050;14.084;2023-06-14T04:26:48;7.57;;;4.80;;
78783;SDS011;68127;51.050;14.084;2023-06-14T04:29:14;6.32;;;4.32;;
78783;SDS011;68127;51.050;14.084;2023-06-14T04:31:41;6.15;;;4.30;;
78783;SDS011;68127;51.050;14.084;2023-06-14T04:34:09;5.90;;;4.30;;
78783;SDS011;68127;51.050;14.084;2023-06-14T04:36:41;6.25;;;4.30;;
78783;SDS011;68127;51.050;14.084;2023-06-14T04:39:13;6.43;;;4.38;;
78783;SDS011;68127;51.050;14.084;2023-06-14T04:41:39;7.07;;;4.55;;
78783;SDS011;68127;51.050;14.084;2023-06-14T04:44:04;6.53;;;4.78;;
78783;SDS011;68127;51.050;14.084;2023-06-14T04:46:30;6.97;;;4.53;;
78783;SDS011;68127;51.050;14.084;2023-06-14T04:48:57;7.15;;;4.60;;
78783;SDS011;68127;51.050;14.084;2023-06-14T04:51:22;7.82;;;5.18;;
78783;SDS011;68127;51.050;14.084;2023-06-14T04:53:54;8.60;;;5.03;;
78783;SDS011;68127;51.050;14.084;2023-06-14T04:56:21;8.38;;;4.47;;
78783;SDS011;68127;51.050;14.084;2023-06-14T04:58:47;8.55;;;4.97;;
78783;SDS011;68127;51.050;14.084;2023-06-14T05:01:12;7.75;;;4.97;;
78783;SDS011;68127;51.050;14.084;2023-06-14T05:03:37;8.60;;;4.93;;
78783;SDS011;68127;51.050;14.084;2023-06-14T05:06:03;6.82;;;4.70;;
78783;SDS011;68127;51.050;14.084;2023-06-14T05:08:28;7.70;;;5.20;;
78783;SDS011;68127;51.050;14.084;2023-06-14T05:10:54;6.90;;;4.90;;
78783;SDS011;68127;51.050;14.084;2023-06-14T05:13:19;6.32;;;4.68;;
78783;SDS011;68127;51.050;14.084;2023-06-14T05:15:45;6.97;;;4.95;;
78783;SDS011;68127;51.050;14.084;2023-06-14T05:18:11;8.40;;;4.95;;
78783;SDS011;68127;51.050;14.084;2023-06-14T05:20:40;6.95;;;4.60;;
78783;SDS011;68127;51.050;14.084;2023-06-14T05:23:06;6.85;;;5.20;;
78783;SDS011;68127;51.050;14.084;2023-06-14T05:25:32;6.57;;;4.85;;
78783;SDS011;68127;51.050;14.084;2023-06-14T05:27:57;7.32;;;4.97;;
78783;SDS011;68127;51.050;14.084;2023-06-14T05:30:22;7.70;;;5.35;;
78783;SDS011;68127;51.050;14.084;2023-06-14T05:32:48;8.95;;;4.75;;
78783;SDS011;68127;51.050;14.084;2023-06-14T05:35:13;7.97;;;4.68;;
78783;SDS011;68127;51.050;14.084;2023-06-14T05:37:39;7.85;;;4.90;;
78783;SDS011;68127;51.050;14.084;2023-06-14T05:40:04;8.68;;;5.05;;
78783;SDS011;68127;51.050;14.084;2023-06-14T05:42:31;8.93;;;5.03;;
78783;SDS011;68127;51.050;14.084;2023-06-14T05:44:56;8.30;;;5.20;;
78783;SDS011;68127;51.050;14.084;2023-06-14T05:47:22;6.57;;;4.50;;
78783;SDS011;68127;51.050;14.084;2023-06-14T05:49:47;6.95;;;4.80;;
78783;SDS011;68127;51.050;14.084;2023-06-14T05:52:12;6.88;;;5.10;;
78783;SDS011;68127;51.050;14.084;2023-06-14T05:54:38;9.30;;;5.15;;
78783;SDS011;68127;51.050;14.084;2023-06-14T05:57:03;7.38;;;5.10;;
78783;SDS011;68127;51.050;14.084;2023-06-14T05:59:30;6.63;;;5.03;;
78783;SDS011;68127;51.050;14.084;2023-06-14T06:01:55;8.10;;;5.13;;
78783;SDS011;68127;51.050;14.084;2023-06-14T06:04:20;6.95;;;5.35;;
78783;SDS011;68127;51.050;14.084;2023-06-14T06:06:46;7.95;;;5.22;;
78783;SDS011;68127;51.050;14.084;2023-06-14T06:09:12;7.53;;;5.22;;
78783;SDS011;68127;51.050;14.084;2023-06-14T06:11:39;8.52;;;5.07;;
78783;SDS011;68127;51.050;14.084;2023-06-14T06:14:05;9.30;;;5.53;;
78783;SDS011;68127;51.050;14.084;2023-06-14T06:16:30;9.60;;;4.97;;
78783;SDS011;68127;51.050;14.084;2023-06-14T06:18:55;7.65;;;4.78;;
78783;SDS011;68127;51.050;14.084;2023-06-14T06:21:20;8.35;;;5.00;;
78783;SDS011;68127;51.050;14.084;2023-06-14T06:23:46;7.25;;;5.20;;
78783;SDS011;68127;51.050;14.084;2023-06-14T06:26:11;8.20;;;4.97;;
78783;SDS011;68127;51.050;14.084;2023-06-14T06:28:36;9.43;;;4.90;;
78783;SDS011;68127;51.050;14.084;2023-06-14T06:31:01;8.60;;;4.63;;
78783;SDS011;68127;51.050;14.084;2023-06-14T06:33:28;6.50;;;4.88;;
78783;SDS011;68127;51.050;14.084;2023-06-14T06:35:53;19.52;;;5.97;;
78783;SDS011;68127;51.050;14.084;2023-06-14T06:38:18;7.57;;;4.45;;
78783;SDS011;68127;51.050;14.084;2023-06-14T06:40:44;10.27;;;4.65;;
78783;SDS011;68127;51.050;14.084;2023-06-14T06:43:09;6.53;;;3.95;;
78783;SDS011;68127;51.050;14.084;2023-06-14T06:45:34;7.18;;;4.43;;
78783;SDS011;68127;51.050;14.084;2023-06-14T06:47:59;5.80;;;4.10;;
78783;SDS011;68127;51.050;14.084;2023-06-14T06:50:25;7.20;;;3.75;;
78783;SDS011;68127;51.050;14.084;2023-06-14T06:52:50;6.45;;;4.50;;
78783;SDS011;68127;51.050;14.084;2023-06-14T06:55:16;7.15;;;3.80;;
78783;SDS011;68127;51.050;14.084;2023-06-14T06:57:41;6.47;;;4.05;;
78783;SDS011;68127;51.050;14.084;2023-06-14T07:00:06;5.70;;;3.72;;
78783;SDS011;68127;51.050;14.084;2023-06-14T07:02:35;5.90;;;4.10;;
78783;SDS011;68127;51.050;14.084;2023-06-14T07:05:01;7.20;;;4.38;;
78783;SDS011;68127;51.050;14.084;2023-06-14T07:07:27;5.57;;;3.85;;
78783;SDS011;68127;51.050;14.084;2023-06-14T07:09:52;7.57;;;4.28;;
78783;SDS011;68127;51.050;14.084;2023-06-14T07:12:17;7.38;;;4.05;;
78783;SDS011;68127;51.050;14.084;2023-06-14T07:14:43;5.75;;;3.25;;
78783;SDS011;68127;51.050;14.084;2023-06-14T07:17:08;6.22;;;3.63;;
78783;SDS011;68127;51.050;14.084;2023-06-14T07:19:33;6.25;;;3.22;;
78783;SDS011;68127;51.050;14.084;2023-06-14T07:21:59;5.63;;;3.47;;
78783;SDS011;68127;51.050;14.084;2023-06-14T07:24:24;5.47;;;3.35;;
78783;SDS011;68127;51.050;14.084;2023-06-14T07:26:49;4.85;;;3.08;;
78783;SDS011;68127;51.050;14.084;2023-06-14T07:29:15;6.38;;;3.42;;
78783;SDS011;68127;51.050;14.084;2023-06-14T07:31:41;5.70;;;3.03;;
78783;SDS011;68127;51.050;14.084;2023-06-14T07:34:06;4.75;;;3.05;;
78783;SDS011;68127;51.050;14.084;2023-06-14T07:36:31;5.63;;;2.97;;
78783;SDS011;68127;51.050;14.084;2023-06-14T07:38:57;5.38;;;2.95;;
78783;SDS011;68127;51.050;14.084;2023-06-14T07:41:22;4.97;;;3.10;;
78783;SDS011;68127;51.050;14.084;2023-06-14T07:43:48;5.32;;;3.05;;
78783;SDS011;68127;51.050;14.084;2023-06-14T07:46:13;5.28;;;2.83;;
78783;SDS011;68127;51.050;14.084;2023-06-14T07:48:39;5.35;;;2.80;;
78783;SDS011;68127;51.050;14.084;2023-06-14T07:51:04;6.90;;;2.95;;
78783;SDS011;68127;51.050;14.084;2023-06-14T07:53:29;6.07;;;2.97;;
78783;SDS011;68127;51.050;14.084;2023-06-14T07:55:55;7.32;;;3.08;;
78783;SDS011;68127;51.050;14.084;2023-06-14T07:58:21;6.47;;;3.65;;
78783;SDS011;68127;51.050;14.084;2023-06-14T08:00:46;5.18;;;3.10;;
78783;SDS011;68127;51.050;14.084;2023-06-14T08:03:12;5.78;;;3.17;;
78783;SDS011;68127;51.050;14.084;2023-06-14T08:05:37;5.40;;;3.50;;
78783;SDS011;68127;51.050;14.084;2023-06-14T08:08:02;7.40;;;3.72;;
78783;SDS011;68127;51.050;14.084;2023-06-14T08:10:28;5.88;;;3.33;;
78783;SDS011;68127;51.050;14.084;2023-06-14T08:12:53;6.63;;;3.60;;
78783;SDS011;68127;51.050;14.084;2023-06-14T08:15:19;5.13;;;3.38;;
78783;SDS011;68127;51.050;14.084;2023-06-14T08:17:44;5.82;;;3.42;;
78783;SDS011;68127;51.050;14.084;2023-06-14T08:20:10;6.88;;;3.28;;
78783;SDS011;68127;51.050;14.084;2023-06-14T08:22:35;6.55;;;3.13;;
78783;SDS011;68127;51.050;14.084;2023-06-14T08:25:01;8.52;;;3.20;;
78783;SDS011;68127;51.050;14.084;2023-06-14T08:27:26;5.65;;;2.50;;
78783;SDS011;68127;51.050;14.084;2023-06-14T08:29:52;6.22;;;2.70;;
78783;SDS011;68127;51.050;14.084;2023-06-14T08:32:17;4.20;;;2.58;;
78783;SDS011;68127;51.050;14.084;2023-06-14T08:34:43;4.60;;;2.33;;
78783;SDS011;68127;51.050;14.084;2023-06-14T08:37:08;5.75;;;3.30;;
78783;SDS011;68127;51.050;14.084;2023-06-14T08:39:33;6.18;;;3.25;;
78783;SDS011;68127;51.050;14.084;2023-06-14T08:41:58;6.15;;;3.42;;
78783;SDS011;68127;51.050;14.084;2023-06-14T08:44:26;5.30;;;3.30;;
78783;SDS011;68127;51.050;14.084;2023-06-14T08:46:51;8.68;;;3.33;;
78783;SDS011;68127;51.050;14.084;2023-06-14T08:49:18;6.00;;;3.10;;
78783;SDS011;68127;51.050;14.084;2023-06-14T08:51:43;5.88;;;3.10;;
78783;SDS011;68127;51.050;14.084;2023-06-14T08:54:09;6.35;;;3.22;;
78783;SDS011;68127;51.050;14.084;2023-06-14T08:56:37;4.80;;;2.85;;
78783;SDS011;68127;51.050;14.084;2023-06-14T08:59:03;5.15;;;2.80;;
78783;SDS011;68127;51.050;14.084;2023-06-14T09:01:30;4.88;;;2.85;;
78783;SDS011;68127;51.050;14.084;2023-06-14T09:03:59;4.55;;;2.72;;
78783;SDS011;68127;51.050;14.084;2023-06-14T09:06:24;5.60;;;3.28;;
78783;SDS011;68127;51.050;14.084;2023-06-14T09:08:50;6.80;;;3.55;;
78783;SDS011;68127;51.050;14.084;2023-06-14T09:11:16;5.00;;;2.97;;
78783;SDS011;68127;51.050;14.084;2023-06-14T09:13:44;7.68;;;3.20;;
78783;SDS011;68127;51.050;14.084;2023-06-14T09:16:09;6.30;;;2.70;;
78783;SDS011;68127;51.050;14.084;2023-06-14T09:18:35;5.85;;;2.80;;
78783;SDS011;68127;51.050;14.084;2023-06-14T09:21:12;6.80;;;3.10;;
78783;SDS011;68127;51.050;14.084;2023-06-14T09:23:42;5.50;;;3.10;;
78783;SDS011;68127;51.050;14.084;2023-06-14T09:26:11;6.95;;;3.30;;
78783;SDS011;68127;51.050;14.084;2023-06-14T09:28:47;6.18;;;3.63;;
78783;SDS011;68127;51.050;14.084;2023-06-14T09:31:18;8.00;;;3.47;;
78783;SDS011;68127;51.050;14.084;2023-06-14T09:33:45;7.85;;;3.80;;
78783;SDS011;68127;51.050;14.084;2023-06-14T09:36:15;8.80;;;4.38;;
78783;SDS011;68127;51.050;14.084;2023-06-14T09:38:41;7.30;;;4.25;;
78783;SDS011;68127;51.050;14.084;2023-06-14T09:41:07;8.52;;;4.28;;
78783;SDS011;68127;51.050;14.084;2023-06-14T09:43:32;6.45;;;3.70;;
78783;SDS011;68127;51.050;14.084;2023-06-14T09:45:59;7.82;;;4.53;;
78783;SDS011;68127;51.050;14.084;2023-06-14T09:48:25;7.00;;;4.38;;
78783;SDS011;68127;51.050;14.084;2023-06-14T09:50:50;8.20;;;3.90;;
78783;SDS011;68127;51.050;14.084;2023-06-14T09:53:16;7.57;;;3.85;;
78783;SDS011;68127;51.050;14.084;2023-06-14T09:55:45;5.40;;;3.22;;
78783;SDS011;68127;51.050;14.084;2023-06-14T09:58:10;5.57;;;3.33;;
78783;SDS011;68127;51.050;14.084;2023-06-14T10:00:37;5.20;;;3.20;;
78783;SDS011;68127;51.050;14.084;2023-06-14T10:03:14;5.10;;;3.10;;
78783;SDS011;68127;51.050;14.084;2023-06-14T10:05:42;5.55;;;3.45;;
78783;SDS011;68127;51.050;14.084;2023-06-14T10:08:10;5.78;;;3.10;;
78783;SDS011;68127;51.050;14.084;2023-06-14T10:10:40;5.18;;;2.70;;
78783;SDS011;68127;51.050;14.084;2023-06-14T10:13:07;7.43;;;3.15;;
78783;SDS011;68127;51.050;14.084;2023-06-14T10:15:35;6.25;;;3.20;;
78783;SDS011;68127;51.050;14.084;2023-06-14T10:20:52;5.57;;;3.10;;
78783;SDS011;68127;51.050;14.084;2023-06-14T10:23:24;6.53;;;2.97;;
78783;SDS011;68127;51.050;14.084;2023-06-14T10:25:54;6.57;;;3.10;;
78783;SDS011;68127;51.050;14.084;2023-06-14T10:28:21;6.95;;;3.08;;
78783;SDS011;68127;51.050;14.084;2023-06-14T10:33:36;4.05;;;2.50;;
78783;SDS011;68127;51.050;14.084;2023-06-14T10:41:26;5.18;;;2.45;;
78783;SDS011;68127;51.050;14.084;2023-06-14T10:43:52;3.75;;;2.40;;
78783;SDS011;68127;51.050;14.084;2023-06-14T10:46:38;5.70;;;2.50;;
78783;SDS011;68127;51.050;14.084;2023-06-14T10:49:03;4.93;;;2.72;;
78783;SDS011;68127;51.050;14.084;2023-06-14T10:51:30;4.47;;;2.38;;
78783;SDS011;68127;51.050;14.084;2023-06-14T10:54:11;6.78;;;2.70;;
78783;SDS011;68127;51.050;14.084;2023-06-14T10:56:48;4.72;;;2.60;;
78783;SDS011;68127;51.050;14.084;2023-06-14T10:59:15;4.22;;;2.50;;
78783;SDS011;68127;51.050;14.084;2023-06-14T11:01:47;4.88;;;2.47;;
78783;SDS011;68127;51.050;14.084;2023-06-14T11:04:52;4.40;;;2.67;;
78783;SDS011;68127;51.050;14.084;2023-06-14T11:13:03;5.20;;;2.70;;
78783;SDS011;68127;51.050;14.084;2023-06-14T11:15:29;6.57;;;3.00;;
78783;SDS011;68127;51.050;14.084;2023-06-14T11:17:55;9.43;;;3.10;;
78783;SDS011;68127;51.050;14.084;2023-06-14T11:20:24;4.68;;;2.70;;
78783;SDS011;68127;51.050;14.084;2023-06-14T11:22:50;5.80;;;3.35;;
78783;SDS011;68127;51.050;14.084;2023-06-14T11:25:16;5.35;;;3.17;;
78783;SDS011;68127;51.050;14.084;2023-06-14T11:27:42;8.48;;;3.65;;
78783;SDS011;68127;51.050;14.084;2023-06-14T11:30:08;5.25;;;3.08;;
78783;SDS011;68127;51.050;14.084;2023-06-14T11:32:34;6.10;;;3.15;;
78783;SDS011;68127;51.050;14.084;2023-06-14T11:35:00;6.30;;;3.00;;
78783;SDS011;68127;51.050;14.084;2023-06-14T11:37:25;6.25;;;3.58;;
78783;SDS011;68127;51.050;14.084;2023-06-14T11:39:55;6.68;;;3.50;;
78783;SDS011;68127;51.050;14.084;2023-06-14T11:42:22;4.93;;;2.90;;
78783;SDS011;68127;51.050;14.084;2023-06-14T11:44:47;8.38;;;4.00;;
78783;SDS011;68127;51.050;14.084;2023-06-14T11:47:14;6.80;;;3.47;;
78783;SDS011;68127;51.050;14.084;2023-06-14T11:49:39;6.03;;;3.70;;
78783;SDS011;68127;51.050;14.084;2023-06-14T11:52:04;8.07;;;3.40;;
78783;SDS011;68127;51.050;14.084;2023-06-14T11:54:31;6.75;;;4.00;;
78783;SDS011;68127;51.050;14.084;2023-06-14T11:56:57;5.88;;;3.80;;
78783;SDS011;68127;51.050;14.084;2023-06-14T11:59:22;6.78;;;3.70;;
78783;SDS011;68127;51.050;14.084;2023-06-14T12:01:49;6.70;;;3.95;;
78783;SDS011;68127;51.050;14.084;2023-06-14T12:04:14;5.05;;;3.70;;
78783;SDS011;68127;51.050;14.084;2023-06-14T12:06:39;7.18;;;3.63;;
78783;SDS011;68127;51.050;14.084;2023-06-14T12:09:05;6.32;;;3.72;;
78783;SDS011;68127;51.050;14.084;2023-06-14T12:11:43;5.80;;;3.40;;
78783;SDS011;68127;51.050;14.084;2023-06-14T12:14:08;9.65;;;3.80;;
78783;SDS011;68127;51.050;14.084;2023-06-14T12:16:35;5.93;;;3.53;;
78783;SDS011;68127;51.050;14.084;2023-06-14T12:19:35;9.30;;;3.53;;
78783;SDS011;68127;51.050;14.084;2023-06-14T12:21:53;6.85;;;4.20;;
78783;SDS011;68127;51.050;14.084;2023-06-14T12:24:19;5.68;;;3.60;;
78783;SDS011;68127;51.050;14.084;2023-06-14T12:26:44;4.93;;;3.20;;
78783;SDS011;68127;51.050;14.084;2023-06-14T12:29:10;5.30;;;2.90;;
78783;SDS011;68127;51.050;14.084;2023-06-14T12:31:37;7.82;;;3.67;;
78783;SDS011;68127;51.050;14.084;2023-06-14T12:34:02;6.43;;;3.97;;
78783;SDS011;68127;51.050;14.084;2023-06-14T12:36:28;6.20;;;3.80;;
78783;SDS011;68127;51.050;14.084;2023-06-14T12:38:53;7.57;;;4.13;;
78783;SDS011;68127;51.050;14.084;2023-06-14T12:41:19;9.00;;;3.80;;
78783;SDS011;68127;51.050;14.084;2023-06-14T12:43:47;7.45;;;3.42;;
78783;SDS011;68127;51.050;14.084;2023-06-14T12:46:12;7.28;;;3.70;;
78783;SDS011;68127;51.050;14.084;2023-06-14T12:48:37;5.45;;;3.67;;
78783;SDS011;68127;51.050;14.084;2023-06-14T12:51:03;7.85;;;3.53;;
78783;SDS011;68127;51.050;14.084;2023-06-14T12:53:28;5.53;;;3.70;;
78783;SDS011;68127;51.050;14.084;2023-06-14T12:55:53;5.50;;;3.28;;
78783;SDS011;68127;51.050;14.084;2023-06-14T12:58:18;5.75;;;3.10;;
78783;SDS011;68127;51.050;14.084;2023-06-14T13:00:44;6.45;;;3.40;;
78783;SDS011;68127;51.050;14.084;2023-06-14T13:03:10;5.03;;;3.20;;
78783;SDS011;68127;51.050;14.084;2023-06-14T13:05:35;6.30;;;4.10;;
78783;SDS011;68127;51.050;14.084;2023-06-14T13:08:02;6.25;;;4.05;;
78783;SDS011;68127;51.050;14.084;2023-06-14T13:10:27;6.55;;;4.47;;
78783;SDS011;68127;51.050;14.084;2023-06-14T13:12:53;9.50;;;4.32;;
78783;SDS011;68127;51.050;14.084;2023-06-14T13:15:18;7.63;;;3.63;;
78783;SDS011;68127;51.050;14.084;2023-06-14T13:17:43;7.18;;;4.00;;
78783;SDS011;68127;51.050;14.084;2023-06-14T13:20:13;6.10;;;3.40;;
78783;SDS011;68127;51.050;14.084;2023-06-14T13:22:38;8.45;;;4.18;;
78783;SDS011;68127;51.050;14.084;2023-06-14T13:25:04;7.07;;;3.85;;
78783;SDS011;68127;51.050;14.084;2023-06-14T13:27:30;8.00;;;4.20;;
78783;SDS011;68127;51.050;14.084;2023-06-14T13:29:55;6.78;;;3.80;;
78783;SDS011;68127;51.050;14.084;2023-06-14T13:32:21;5.72;;;3.80;;
78783;SDS011;68127;51.050;14.084;2023-06-14T13:34:46;5.63;;;3.55;;
78783;SDS011;68127;51.050;14.084;2023-06-14T13:37:12;5.65;;;3.42;;
78783;SDS011;68127;51.050;14.084;2023-06-14T13:39:37;6.00;;;3.80;;
78783;SDS011;68127;51.050;14.084;2023-06-14T13:42:02;5.03;;;3.15;;
78783;SDS011;68127;51.050;14.084;2023-06-14T13:44:28;5.28;;;3.50;;
78783;SDS011;68127;51.050;14.084;2023-06-14T13:46:53;7.07;;;3.83;;
78783;SDS011;68127;51.050;14.084;2023-06-14T13:49:19;8.48;;;3.70;;
78783;SDS011;68127;51.050;14.084;2023-06-14T13:51:44;5.43;;;3.50;;
78783;SDS011;68127;51.050;14.084;2023-06-14T13:54:11;5.38;;;3.03;;
78783;SDS011;68127;51.050;14.084;2023-06-14T13:56:37;7.03;;;3.55;;
78783;SDS011;68127;51.050;14.084;2023-06-14T13:59:02;5.35;;;3.40;;
78783;SDS011;68127;51.050;14.084;2023-06-14T14:01:28;5.80;;;3.33;;
78783;SDS011;68127;51.050;14.084;2023-06-14T14:03:53;5.28;;;3.50;;
78783;SDS011;68127;51.050;14.084;2023-06-14T14:06:19;6.25;;;3.42;;
78783;SDS011;68127;51.050;14.084;2023-06-14T14:08:44;4.68;;;3.00;;
78783;SDS011;68127;51.050;14.084;2023-06-14T14:11:09;5.97;;;3.45;;
78783;SDS011;68127;51.050;14.084;2023-06-14T14:13:35;5.35;;;3.50;;
78783;SDS011;68127;51.050;14.084;2023-06-14T14:16:01;5.68;;;3.40;;
78783;SDS011;68127;51.050;14.084;2023-06-14T14:18:27;5.38;;;3.53;;
78783;SDS011;68127;51.050;14.084;2023-06-14T14:20:52;5.25;;;3.45;;
78783;SDS011;68127;51.050;14.084;2023-06-14T14:23:21;6.20;;;3.45;;
78783;SDS011;68127;51.050;14.084;2023-06-14T14:25:46;8.82;;;3.42;;
78783;SDS011;68127;51.050;14.084;2023-06-14T14:28:12;6.95;;;3.30;;
78783;SDS011;68127;51.050;14.084;2023-06-14T14:30:38;5.63;;;3.20;;
78783;SDS011;68127;51.050;14.084;2023-06-14T14:33:05;6.10;;;3.60;;
78783;SDS011;68127;51.050;14.084;2023-06-14T14:35:30;5.53;;;3.45;;
78783;SDS011;68127;51.050;14.084;2023-06-14T14:37:56;5.38;;;3.30;;
78783;SDS011;68127;51.050;14.084;2023-06-14T14:40:21;6.13;;;3.65;;
78783;SDS011;68127;51.050;14.084;2023-06-14T14:42:46;5.57;;;3.40;;
78783;SDS011;68127;51.050;14.084;2023-06-14T14:45:12;5.97;;;3.05;;